Bookmark and Share
Track history (hours):
 

Emslake

Last reported at 2014-Apr-16 16:32 UTC. Time now 2014-Apr-20 11:41 UTC.
Position N 56°05' E 016°47'.

Length 100 m; draft 3.5 m.

Type: Cargo ship. MMSI: 305712000.

NotesDate/timePositionNaut miles runAvg speedWind from/ knotsBaromVisibWave heightAir tempDewpointWater temp
2014-Apr-16 16:32N 56°05' E 016°47'9 9.5
2014-Apr-16 15:33N 56°00' E 016°32'9 9.4
2014-Apr-16 14:34N 55°58' E 016°16'10 9.5
2014-Apr-16 13:33N 55°57' E 015°59'9 9.4
2014-Apr-16 12:34N 55°55' E 015°42'9 9.4
2014-Apr-16 11:34N 55°56' E 015°26'9 9.3
2014-Apr-16 10:34N 55°56' E 015°09'10 9.4
2014-Apr-16 09:33N 55°57' E 014°52'10 9.7
2014-Apr-16 08:33N 55°56' E 014°35'9 8.2
2014-Apr-16 07:30N 55°56' E 014°20'0 0.0
2014-Apr-16 06:30N 55°56' E 014°20'0 0.0
2014-Apr-16 05:30N 55°56' E 014°20'0 0.0
2014-Apr-16 04:30N 55°56' E 014°20'0 0.0
2014-Apr-16 03:30N 55°56' E 014°20'0 0.0
2014-Apr-16 02:24N 55°56' E 014°20'0 0.0
2014-Apr-16 01:24N 55°56' E 014°20'0 0.0
2014-Apr-16 00:30N 55°56' E 014°20'0 0.0
2014-Apr-15 23:30N 55°56' E 014°20'0 0.0
2014-Apr-15 22:24N 55°56' E 014°20'0 0.0
2014-Apr-15 21:24N 55°56' E 014°20'0 0.0
2014-Apr-15 20:30N 55°56' E 014°20'0 0.0
2014-Apr-15 19:30N 55°56' E 014°20'0 0.0
2014-Apr-15 18:24N 55°56' E 014°20'0 0.0
2014-Apr-15 17:30N 55°56' E 014°20'0 0.0
2014-Apr-15 16:24N 55°56' E 014°20'0 0.0
2014-Apr-15 15:24N 55°56' E 014°20'0 0.0
2014-Apr-15 14:30N 55°56' E 014°20'0 0.0
2014-Apr-15 10:30N 55°56' E 014°20'0 0.0
2014-Apr-15 05:30N 55°56' E 014°20'0 0.0
2014-Apr-15 03:30N 55°56' E 014°20'0 0.0
2014-Apr-15 02:30N 55°56' E 014°20'0 0.0
2014-Apr-15 01:30N 55°56' E 014°20'0 0.0
2014-Apr-15 00:30N 55°56' E 014°20'0 0.0
2014-Apr-14 23:30N 55°56' E 014°20'0 0.0
2014-Apr-14 22:30N 55°56' E 014°20'0 0.0
2014-Apr-14 21:30N 55°56' E 014°20'0 0.0
2014-Apr-14 20:30N 55°56' E 014°20'0 0.0
2014-Apr-14 16:30N 55°56' E 014°20'0 0.0
2014-Apr-14 15:30N 55°56' E 014°20'0 0.0
2014-Apr-14 14:30N 55°56' E 014°20'0 0.0
2014-Apr-14 10:30N 55°56' E 014°20'0 0.0
2014-Apr-14 09:30N 55°56' E 014°20'0 0.0
2014-Apr-13 22:24N 55°56' E 014°20'0 0.0
2014-Apr-13 21:30N 55°56' E 014°20'0 0.0
2014-Apr-13 20:30N 55°56' E 014°20'0 0.0
2014-Apr-13 18:30N 55°56' E 014°20'0 0.0
2014-Apr-13 17:30N 55°56' E 014°20'0 0.0
2014-Apr-13 15:30N 55°56' E 014°20'0 0.0
2014-Apr-13 13:30N 55°56' E 014°20'0 0.0
2014-Apr-13 12:24N 55°56' E 014°20'0 0.0
2014-Apr-13 11:24N 55°56' E 014°20'0 0.0
2014-Apr-13 09:30N 55°56' E 014°20'1 0.6
2014-Apr-13 08:33N 55°56' E 014°21'7 6.8
2014-Apr-13 07:33N 55°52' E 014°31'8 7.5
2014-Apr-13 06:33N 55°45' E 014°33'7 7.4
2014-Apr-13 05:33N 55°37' E 014°35'7 7.4
2014-Apr-13 04:34N 55°30' E 014°37'7 7.3
2014-Apr-13 03:34N 55°23' E 014°38'8 7.7
2014-Apr-13 02:34N 55°17' E 014°30'8 7.7
2014-Apr-13 01:33N 55°10' E 014°22'8 7.9
2014-Apr-13 00:33N 55°03' E 014°16'8 8.4
2014-Apr-12 23:33N 54°56' E 014°10'8 8.4
2014-Apr-12 22:34N 54°48' E 014°04'9 8.5
2014-Apr-12 21:34N 54°41' E 013°58'9 8.8
2014-Apr-12 20:34N 54°32' E 013°55'9 8.6
2014-Apr-12 19:34N 54°23' E 013°52'8 8.2
2014-Apr-12 18:34N 54°16' E 013°45'9 8.7
2014-Apr-12 17:34N 54°12' E 013°32'8 8.1
2014-Apr-12 16:34N 54°14' E 013°18'8 7.6
2014-Apr-12 15:34N 54°18' E 013°07'1 0.6
2014-Apr-12 14:32N 54°19' E 013°06'0 0.0
2014-Apr-12 13:32N 54°19' E 013°06'0 0.0
2014-Apr-12 12:32N 54°19' E 013°06'0 0.0
2014-Apr-12 11:32N 54°19' E 013°06'0 0.0
2014-Apr-12 10:29N 54°19' E 013°06'0 0.0
2014-Apr-12 09:32N 54°19' E 013°06'0 0.0
2014-Apr-12 08:32N 54°19' E 013°06'0 0.0
2014-Apr-12 07:20N 54°19' E 013°06'0 0.0
2014-Apr-12 06:32N 54°19' E 013°06'0 0.0
2014-Apr-12 05:32N 54°19' E 013°06'0 0.0
2014-Apr-12 04:32N 54°19' E 013°06'0 0.0
2014-Apr-12 03:32N 54°19' E 013°06'0 0.0
2014-Apr-12 02:32N 54°19' E 013°06'0 0.0
2014-Apr-12 01:32N 54°19' E 013°06'0 0.0
2014-Apr-12 00:32N 54°19' E 013°06'0 0.0
2014-Apr-11 23:29N 54°19' E 013°06'0 0.0
2014-Apr-11 22:32N 54°19' E 013°06'0 0.0
2014-Apr-11 21:32N 54°19' E 013°06'0 0.0
2014-Apr-11 20:33N 54°19' E 013°06'0 0.1
2014-Apr-11 19:33N 54°19' E 013°06'0 0.0
2014-Apr-11 18:33N 54°19' E 013°06'0 0.0
2014-Apr-11 17:33N 54°19' E 013°06'0 0.0
2014-Apr-11 16:33N 54°19' E 013°06'0 0.0
2014-Apr-11 15:33N 54°19' E 013°06'0 0.0
2014-Apr-11 14:33N 54°19' E 013°06'0 0.0
2014-Apr-11 13:33N 54°19' E 013°06'0 0.0
2014-Apr-11 12:33N 54°19' E 013°06'0 0.0
2014-Apr-11 11:33N 54°19' E 013°06'0 0.0
2014-Apr-11 10:33N 54°19' E 013°06'0 0.0
2014-Apr-11 09:33N 54°19' E 013°06'0 0.0
2014-Apr-11 08:33N 54°19' E 013°06'0 0.0
2014-Apr-11 07:33N 54°19' E 013°06'0 0.3
2014-Apr-11 06:33N 54°19' E 013°07'5 4.9
2014-Apr-11 05:34N 54°16' E 013°13'8 8.2
2014-Apr-11 04:34N 54°12' E 013°26'8 8.4
2014-Apr-11 03:33N 54°13' E 013°40'8 8.2
2014-Apr-11 02:33N 54°20' E 013°49'8 8.0
2014-Apr-11 01:34N 54°27' E 013°52'10 9.7
2014-Apr-11 00:34N 54°37' E 013°54'9 8.6
2014-Apr-10 23:34N 54°45' E 013°57'8 8.3
2014-Apr-10 22:33N 54°54' E 013°58'8 8.1
2014-Apr-10 21:34N 55°02' E 013°60'9 8.5
2014-Apr-10 20:34N 55°08' E 014°09'10 9.7
2014-Apr-10 19:33N 55°16' E 014°20'9 8.6
2014-Apr-10 18:33N 55°22' E 014°30'9 8.9
2014-Apr-10 17:33N 55°28' E 014°42'1010.1
2014-Apr-10 16:33N 55°33' E 014°57'10 9.9
2014-Apr-10 15:33N 55°38' E 015°12'10 9.9
2014-Apr-10 14:32N 55°43' E 015°28'1010.0
2014-Apr-10 13:29N 55°49' E 015°44'1110.1
2014-Apr-10 12:24N 55°54' E 016°00'810.0
2014-Apr-10 11:34N 55°59' E 016°13'  

Dump ship's entire track history

sailing weather and tide predictions

Emslake — V2FL4 — position and weather